sensor_id;sensor_type;location;lat;lon;timestamp;temperature;humidity
31309;DHT22;17936;52.446;10.840;2022-09-09T00:02:19;13.50;99.90
31309;DHT22;17936;52.446;10.840;2022-09-09T00:07:43;13.50;99.90
31309;DHT22;17936;52.446;10.840;2022-09-09T00:10:34;13.60;99.90
31309;DHT22;17936;52.446;10.840;2022-09-09T00:13:05;13.50;99.90
31309;DHT22;17936;52.446;10.840;2022-09-09T00:16:08;13.60;99.90
31309;DHT22;17936;52.446;10.840;2022-09-09T00:21:41;13.80;99.90
31309;DHT22;17936;52.446;10.840;2022-09-09T00:24:34;13.70;99.90
31309;DHT22;17936;52.446;10.840;2022-09-09T00:27:53;13.80;99.90
31309;DHT22;17936;52.446;10.840;2022-09-09T00:30:25;13.80;99.90
31309;DHT22;17936;52.446;10.840;2022-09-09T00:32:55;13.80;99.90
31309;DHT22;17936;52.446;10.840;2022-09-09T00:35:51;13.80;99.90
31309;DHT22;17936;52.446;10.840;2022-09-09T00:40:52;13.80;99.90
31309;DHT22;17936;52.446;10.840;2022-09-09T00:43:33;13.80;99.90
31309;DHT22;17936;52.446;10.840;2022-09-09T00:54:25;13.60;99.90
31309;DHT22;17936;52.446;10.840;2022-09-09T00:57:10;13.50;99.90
31309;DHT22;17936;52.446;10.840;2022-09-09T00:59:48;13.50;99.90
31309;DHT22;17936;52.446;10.840;2022-09-09T01:02:28;13.40;99.90
31309;DHT22;17936;52.446;10.840;2022-09-09T01:05:00;13.40;99.90
31309;DHT22;17936;52.446;10.840;2022-09-09T01:07:49;13.50;99.90
31309;DHT22;17936;52.446;10.840;2022-09-09T01:10:29;13.50;99.90
31309;DHT22;17936;52.446;10.840;2022-09-09T01:12:58;13.50;99.90
31309;DHT22;17936;52.446;10.840;2022-09-09T01:15:30;13.30;99.90
31309;DHT22;17936;52.446;10.840;2022-09-09T01:18:06;13.20;99.90
31309;DHT22;17936;52.446;10.840;2022-09-09T01:23:41;13.20;99.90
31309;DHT22;17936;52.446;10.840;2022-09-09T01:28:51;13.40;99.90
31309;DHT22;17936;52.446;10.840;2022-09-09T01:31:27;13.50;99.90
31309;DHT22;17936;52.446;10.840;2022-09-09T01:33:54;13.50;99.90
31309;DHT22;17936;52.446;10.840;2022-09-09T01:36:29;13.40;99.90
31309;DHT22;17936;52.446;10.840;2022-09-09T01:38:58;13.40;99.90
31309;DHT22;17936;52.446;10.840;2022-09-09T01:41:24;13.50;99.90
31309;DHT22;17936;52.446;10.840;2022-09-09T01:43:50;13.50;99.90
31309;DHT22;17936;52.446;10.840;2022-09-09T01:46:17;13.50;99.90
31309;DHT22;17936;52.446;10.840;2022-09-09T01:48:46;13.60;99.90
31309;DHT22;17936;52.446;10.840;2022-09-09T01:51:11;13.60;99.90
31309;DHT22;17936;52.446;10.840;2022-09-09T01:53:39;13.60;99.90
31309;DHT22;17936;52.446;10.840;2022-09-09T01:56:52;13.60;99.90
31309;DHT22;17936;52.446;10.840;2022-09-09T01:59:50;13.60;99.90
31309;DHT22;17936;52.446;10.840;2022-09-09T02:04:50;13.50;99.90
31309;DHT22;17936;52.446;10.840;2022-09-09T02:07:47;13.60;99.90
31309;DHT22;17936;52.446;10.840;2022-09-09T02:10:22;13.60;99.90
31309;DHT22;17936;52.446;10.840;2022-09-09T02:12:55;13.40;99.90
31309;DHT22;17936;52.446;10.840;2022-09-09T02:15:32;13.50;99.90
31309;DHT22;17936;52.446;10.840;2022-09-09T02:18:29;13.50;99.90
31309;DHT22;17936;52.446;10.840;2022-09-09T02:20:57;13.60;99.90
31309;DHT22;17936;52.446;10.840;2022-09-09T02:23:24;13.60;99.90
31309;DHT22;17936;52.446;10.840;2022-09-09T02:25:52;13.60;99.90
31309;DHT22;17936;52.446;10.840;2022-09-09T02:28:20;13.60;99.90
31309;DHT22;17936;52.446;10.840;2022-09-09T02:30:47;13.70;99.90
31309;DHT22;17936;52.446;10.840;2022-09-09T02:33:16;13.70;99.90
31309;DHT22;17936;52.446;10.840;2022-09-09T02:35:43;13.60;99.90
31309;DHT22;17936;52.446;10.840;2022-09-09T02:38:13;13.50;99.90
31309;DHT22;17936;52.446;10.840;2022-09-09T02:40:38;13.40;99.90
31309;DHT22;17936;52.446;10.840;2022-09-09T02:43:04;13.40;99.90
31309;DHT22;17936;52.446;10.840;2022-09-09T02:46:03;13.50;99.90
31309;DHT22;17936;52.446;10.840;2022-09-09T02:48:51;13.60;99.90
31309;DHT22;17936;52.446;10.840;2022-09-09T02:51:32;13.60;99.90
31309;DHT22;17936;52.446;10.840;2022-09-09T02:54:29;13.50;99.90
31309;DHT22;17936;52.446;10.840;2022-09-09T02:57:02;13.50;99.90
31309;DHT22;17936;52.446;10.840;2022-09-09T02:59:29;13.70;99.90
31309;DHT22;17936;52.446;10.840;2022-09-09T03:01:55;13.60;99.90
31309;DHT22;17936;52.446;10.840;2022-09-09T03:04:21;13.50;99.90
31309;DHT22;17936;52.446;10.840;2022-09-09T03:06:47;13.30;99.90
31309;DHT22;17936;52.446;10.840;2022-09-09T03:09:12;13.30;99.90
31309;DHT22;17936;52.446;10.840;2022-09-09T03:11:38;13.10;99.90
31309;DHT22;17936;52.446;10.840;2022-09-09T03:14:04;13.10;99.90
31309;DHT22;17936;52.446;10.840;2022-09-09T03:16:29;13.00;99.90
31309;DHT22;17936;52.446;10.840;2022-09-09T03:18:55;12.90;99.90
31309;DHT22;17936;52.446;10.840;2022-09-09T03:21:21;12.90;99.90
31309;DHT22;17936;52.446;10.840;2022-09-09T03:23:47;12.80;99.90
31309;DHT22;17936;52.446;10.840;2022-09-09T03:26:12;12.90;99.90
31309;DHT22;17936;52.446;10.840;2022-09-09T03:28:40;12.90;99.90
31309;DHT22;17936;52.446;10.840;2022-09-09T03:31:06;12.90;99.90
31309;DHT22;17936;52.446;10.840;2022-09-09T03:33:56;12.90;99.90
31309;DHT22;17936;52.446;10.840;2022-09-09T03:36:24;12.90;99.90
31309;DHT22;17936;52.446;10.840;2022-09-09T03:38:51;12.90;99.90
31309;DHT22;17936;52.446;10.840;2022-09-09T03:41:17;12.80;99.90
31309;DHT22;17936;52.446;10.840;2022-09-09T03:43:43;12.70;99.90
31309;DHT22;17936;52.446;10.840;2022-09-09T03:46:09;12.70;99.90
31309;DHT22;17936;52.446;10.840;2022-09-09T03:48:35;12.60;99.90
31309;DHT22;17936;52.446;10.840;2022-09-09T03:51:00;12.60;99.90
31309;DHT22;17936;52.446;10.840;2022-09-09T03:53:28;12.60;99.90
31309;DHT22;17936;52.446;10.840;2022-09-09T03:55:55;12.60;99.90
31309;DHT22;17936;52.446;10.840;2022-09-09T03:58:22;12.50;99.90
31309;DHT22;17936;52.446;10.840;2022-09-09T04:00:53;12.50;99.90
31309;DHT22;17936;52.446;10.840;2022-09-09T04:03:19;12.50;99.90
31309;DHT22;17936;52.446;10.840;2022-09-09T04:05:49;12.70;99.90
31309;DHT22;17936;52.446;10.840;2022-09-09T04:08:14;12.70;99.90
31309;DHT22;17936;52.446;10.840;2022-09-09T04:10:40;12.80;99.90
31309;DHT22;17936;52.446;10.840;2022-09-09T04:13:05;12.90;99.90
31309;DHT22;17936;52.446;10.840;2022-09-09T04:15:31;13.00;99.90
31309;DHT22;17936;52.446;10.840;2022-09-09T04:17:57;13.00;99.90
31309;DHT22;17936;52.446;10.840;2022-09-09T04:20:23;13.10;99.90
31309;DHT22;17936;52.446;10.840;2022-09-09T04:22:48;13.00;99.90
31309;DHT22;17936;52.446;10.840;2022-09-09T04:25:14;13.00;99.90
31309;DHT22;17936;52.446;10.840;2022-09-09T04:27:40;13.10;99.90
31309;DHT22;17936;52.446;10.840;2022-09-09T04:30:06;13.10;99.90
31309;DHT22;17936;52.446;10.840;2022-09-09T04:32:33;13.30;99.90
31309;DHT22;17936;52.446;10.840;2022-09-09T04:35:02;13.10;99.90
31309;DHT22;17936;52.446;10.840;2022-09-09T04:37:32;13.20;99.90
31309;DHT22;17936;52.446;10.840;2022-09-09T04:39:57;13.20;99.90
31309;DHT22;17936;52.446;10.840;2022-09-09T04:42:24;13.00;99.90
31309;DHT22;17936;52.446;10.840;2022-09-09T04:44:53;12.90;99.90
31309;DHT22;17936;52.446;10.840;2022-09-09T04:47:19;12.90;99.90
31309;DHT22;17936;52.446;10.840;2022-09-09T04:49:45;12.80;99.90
31309;DHT22;17936;52.446;10.840;2022-09-09T04:52:10;12.80;99.90
31309;DHT22;17936;52.446;10.840;2022-09-09T04:54:36;12.80;99.90
31309;DHT22;17936;52.446;10.840;2022-09-09T04:57:01;12.80;99.90
31309;DHT22;17936;52.446;10.840;2022-09-09T04:59:27;12.80;99.90
31309;DHT22;17936;52.446;10.840;2022-09-09T05:01:52;12.80;99.90
31309;DHT22;17936;52.446;10.840;2022-09-09T05:04:20;12.80;99.90
31309;DHT22;17936;52.446;10.840;2022-09-09T05:06:46;12.70;99.90
31309;DHT22;17936;52.446;10.840;2022-09-09T05:09:11;12.80;99.90
31309;DHT22;17936;52.446;10.840;2022-09-09T05:11:37;12.90;99.90
31309;DHT22;17936;52.446;10.840;2022-09-09T05:14:03;12.90;99.90
31309;DHT22;17936;52.446;10.840;2022-09-09T05:16:30;13.00;99.90
31309;DHT22;17936;52.446;10.840;2022-09-09T05:18:56;13.00;99.90
31309;DHT22;17936;52.446;10.840;2022-09-09T05:21:24;13.10;99.90
31309;DHT22;17936;52.446;10.840;2022-09-09T05:23:51;13.10;99.90
31309;DHT22;17936;52.446;10.840;2022-09-09T05:26:20;13.10;99.90
31309;DHT22;17936;52.446;10.840;2022-09-09T05:28:46;13.10;99.90
31309;DHT22;17936;52.446;10.840;2022-09-09T05:31:13;13.20;99.90
31309;DHT22;17936;52.446;10.840;2022-09-09T05:33:40;13.10;99.90
31309;DHT22;17936;52.446;10.840;2022-09-09T05:36:14;13.10;99.90
31309;DHT22;17936;52.446;10.840;2022-09-09T05:38:41;13.20;99.90
31309;DHT22;17936;52.446;10.840;2022-09-09T05:41:07;13.30;99.90
31309;DHT22;17936;52.446;10.840;2022-09-09T05:43:33;13.40;99.90
31309;DHT22;17936;52.446;10.840;2022-09-09T05:46:05;13.50;99.90
31309;DHT22;17936;52.446;10.840;2022-09-09T05:48:31;13.60;99.90
31309;DHT22;17936;52.446;10.840;2022-09-09T05:50:58;13.70;99.90
31309;DHT22;17936;52.446;10.840;2022-09-09T05:53:24;13.80;99.90
31309;DHT22;17936;52.446;10.840;2022-09-09T05:55:50;13.80;99.90
31309;DHT22;17936;52.446;10.840;2022-09-09T05:58:16;14.00;99.90
31309;DHT22;17936;52.446;10.840;2022-09-09T06:00:42;14.20;99.90
31309;DHT22;17936;52.446;10.840;2022-09-09T06:03:11;14.70;99.90
31309;DHT22;17936;52.446;10.840;2022-09-09T06:05:36;14.80;99.90
31309;DHT22;17936;52.446;10.840;2022-09-09T06:08:02;14.70;99.90
31309;DHT22;17936;52.446;10.840;2022-09-09T06:10:28;14.70;99.90
31309;DHT22;17936;52.446;10.840;2022-09-09T06:12:54;14.70;99.90
31309;DHT22;17936;52.446;10.840;2022-09-09T06:15:19;14.60;99.90
31309;DHT22;17936;52.446;10.840;2022-09-09T06:17:45;14.70;99.90
31309;DHT22;17936;52.446;10.840;2022-09-09T06:20:11;14.70;99.90
31309;DHT22;17936;52.446;10.840;2022-09-09T06:22:39;14.70;99.90
31309;DHT22;17936;52.446;10.840;2022-09-09T06:25:08;14.80;99.90
31309;DHT22;17936;52.446;10.840;2022-09-09T06:27:33;14.70;99.90
31309;DHT22;17936;52.446;10.840;2022-09-09T06:29:59;15.00;99.90
31309;DHT22;17936;52.446;10.840;2022-09-09T06:32:24;15.20;99.90
31309;DHT22;17936;52.446;10.840;2022-09-09T06:34:53;15.40;99.90
31309;DHT22;17936;52.446;10.840;2022-09-09T06:37:19;15.90;99.90
31309;DHT22;17936;52.446;10.840;2022-09-09T06:39:45;15.90;99.90
31309;DHT22;17936;52.446;10.840;2022-09-09T06:42:11;16.40;99.90
31309;DHT22;17936;52.446;10.840;2022-09-09T06:44:36;16.40;99.90
31309;DHT22;17936;52.446;10.840;2022-09-09T06:47:02;16.30;99.90
31309;DHT22;17936;52.446;10.840;2022-09-09T06:49:27;16.50;99.90
31309;DHT22;17936;52.446;10.840;2022-09-09T06:51:53;16.40;99.90
31309;DHT22;17936;52.446;10.840;2022-09-09T06:54:19;16.20;99.90
31309;DHT22;17936;52.446;10.840;2022-09-09T06:56:45;16.20;99.90
31309;DHT22;17936;52.446;10.840;2022-09-09T06:59:11;16.10;99.90
31309;DHT22;17936;52.446;10.840;2022-09-09T07:01:41;15.90;99.90
31309;DHT22;17936;52.446;10.840;2022-09-09T07:04:09;15.80;99.90
31309;DHT22;17936;52.446;10.840;2022-09-09T07:06:38;15.70;99.90
31309;DHT22;17936;52.446;10.840;2022-09-09T07:09:09;15.70;99.90
31309;DHT22;17936;52.446;10.840;2022-09-09T07:11:40;15.80;99.90
31309;DHT22;17936;52.446;10.840;2022-09-09T07:14:07;16.20;99.90
31309;DHT22;17936;52.446;10.840;2022-09-09T07:16:33;16.20;99.90
31309;DHT22;17936;52.446;10.840;2022-09-09T07:19:03;16.30;99.90
31309;DHT22;17936;52.446;10.840;2022-09-09T07:21:30;16.30;99.90
31309;DHT22;17936;52.446;10.840;2022-09-09T07:23:56;16.60;99.90
31309;DHT22;17936;52.446;10.840;2022-09-09T07:26:24;16.70;99.90
31309;DHT22;17936;52.446;10.840;2022-09-09T07:28:51;17.40;99.90
31309;DHT22;17936;52.446;10.840;2022-09-09T07:31:22;17.50;99.90
31309;DHT22;17936;52.446;10.840;2022-09-09T07:33:48;18.00;99.90
31309;DHT22;17936;52.446;10.840;2022-09-09T07:36:16;18.50;99.90
31309;DHT22;17936;52.446;10.840;2022-09-09T07:38:45;18.60;99.90
31309;DHT22;17936;52.446;10.840;2022-09-09T07:41:17;19.00;99.90
31309;DHT22;17936;52.446;10.840;2022-09-09T07:43:44;19.00;99.90
31309;DHT22;17936;52.446;10.840;2022-09-09T07:46:12;19.00;99.90
31309;DHT22;17936;52.446;10.840;2022-09-09T07:48:39;19.00;99.90
31309;DHT22;17936;52.446;10.840;2022-09-09T07:51:11;19.10;99.90
31309;DHT22;17936;52.446;10.840;2022-09-09T07:53:38;19.20;99.90
31309;DHT22;17936;52.446;10.840;2022-09-09T07:56:10;19.20;99.90
31309;DHT22;17936;52.446;10.840;2022-09-09T07:58:39;19.20;99.90
31309;DHT22;17936;52.446;10.840;2022-09-09T08:01:11;19.50;99.90
31309;DHT22;17936;52.446;10.840;2022-09-09T08:03:38;19.90;99.90
31309;DHT22;17936;52.446;10.840;2022-09-09T08:06:05;19.70;99.90
31309;DHT22;17936;52.446;10.840;2022-09-09T08:08:32;19.30;99.90
31309;DHT22;17936;52.446;10.840;2022-09-09T08:11:07;19.70;99.90
31309;DHT22;17936;52.446;10.840;2022-09-09T08:13:34;19.40;99.90
31309;DHT22;17936;52.446;10.840;2022-09-09T08:16:06;19.30;99.90
31309;DHT22;17936;52.446;10.840;2022-09-09T08:18:33;18.90;99.90
31309;DHT22;17936;52.446;10.840;2022-09-09T08:21:09;18.40;99.90
31309;DHT22;17936;52.446;10.840;2022-09-09T08:23:37;18.30;99.90
31309;DHT22;17936;52.446;10.840;2022-09-09T08:26:09;18.20;99.90
31309;DHT22;17936;52.446;10.840;2022-09-09T08:28:35;18.30;99.90
31309;DHT22;17936;52.446;10.840;2022-09-09T08:31:18;18.30;99.90
31309;DHT22;17936;52.446;10.840;2022-09-09T08:33:44;18.30;99.90
31309;DHT22;17936;52.446;10.840;2022-09-09T08:36:15;18.10;99.90
31309;DHT22;17936;52.446;10.840;2022-09-09T08:38:42;18.30;99.90
31309;DHT22;17936;52.446;10.840;2022-09-09T08:41:23;18.60;99.90
31309;DHT22;17936;52.446;10.840;2022-09-09T08:47:24;19.30;99.90
31309;DHT22;17936;52.446;10.840;2022-09-09T08:53:04;19.70;99.90
31309;DHT22;17936;52.446;10.840;2022-09-09T08:55:56;19.90;99.90
31309;DHT22;17936;52.446;10.840;2022-09-09T08:58:29;19.80;99.90
31309;DHT22;17936;52.446;10.840;2022-09-09T09:00:57;19.90;99.90
31309;DHT22;17936;52.446;10.840;2022-09-09T09:03:43;19.80;99.90
31309;DHT22;17936;52.446;10.840;2022-09-09T09:09:22;20.00;99.90
31309;DHT22;17936;52.446;10.840;2022-09-09T09:11:56;20.30;99.90
31309;DHT22;17936;52.446;10.840;2022-09-09T09:14:28;20.60;99.90
31309;DHT22;17936;52.446;10.840;2022-09-09T09:17:00;20.60;99.90
31309;DHT22;17936;52.446;10.840;2022-09-09T09:19:30;20.10;99.90
31309;DHT22;17936;52.446;10.840;2022-09-09T09:22:03;20.60;99.90
31309;DHT22;17936;52.446;10.840;2022-09-09T09:29:58;20.00;99.90
31309;DHT22;17936;52.446;10.840;2022-09-09T09:32:29;20.10;99.90
31309;DHT22;17936;52.446;10.840;2022-09-09T09:34:58;20.20;99.90
31309;DHT22;17936;52.446;10.840;2022-09-09T09:37:33;19.90;99.90
31309;DHT22;17936;52.446;10.840;2022-09-09T09:40:15;19.80;99.90
31309;DHT22;17936;52.446;10.840;2022-09-09T09:42:59;20.00;99.90
31309;DHT22;17936;52.446;10.840;2022-09-09T09:45:44;20.30;99.90
31309;DHT22;17936;52.446;10.840;2022-09-09T09:48:12;20.20;99.90
31309;DHT22;17936;52.446;10.840;2022-09-09T09:50:48;20.40;99.90
31309;DHT22;17936;52.446;10.840;2022-09-09T09:53:25;20.90;99.90
31309;DHT22;17936;52.446;10.840;2022-09-09T09:55:58;21.30;99.90
31309;DHT22;17936;52.446;10.840;2022-09-09T09:58:30;21.50;99.90
31309;DHT22;17936;52.446;10.840;2022-09-09T10:00:58;21.80;99.90
31309;DHT22;17936;52.446;10.840;2022-09-09T10:03:26;22.20;99.90
31309;DHT22;17936;52.446;10.840;2022-09-09T10:05:52;22.30;99.90
31309;DHT22;17936;52.446;10.840;2022-09-09T10:08:18;22.00;99.90
31309;DHT22;17936;52.446;10.840;2022-09-09T10:13:41;21.50;99.90
31309;DHT22;17936;52.446;10.840;2022-09-09T10:16:38;21.40;99.90
31309;DHT22;17936;52.446;10.840;2022-09-09T10:19:10;21.50;99.90
31309;DHT22;17936;52.446;10.840;2022-09-09T10:22:20;21.70;99.90
31309;DHT22;17936;52.446;10.840;2022-09-09T10:25:01;21.80;99.90
31309;DHT22;17936;52.446;10.840;2022-09-09T10:30:22;22.60;99.90
31309;DHT22;17936;52.446;10.840;2022-09-09T10:33:09;22.30;99.90
31309;DHT22;17936;52.446;10.840;2022-09-09T10:35:47;22.60;99.90
31309;DHT22;17936;52.446;10.840;2022-09-09T10:38:20;23.00;99.90
31309;DHT22;17936;52.446;10.840;2022-09-09T10:43:28;23.10;99.90
31309;DHT22;17936;52.446;10.840;2022-09-09T10:46:16;22.30;99.90
31309;DHT22;17936;52.446;10.840;2022-09-09T10:48:59;22.60;99.90
31309;DHT22;17936;52.446;10.840;2022-09-09T10:51:40;23.10;99.90
31309;DHT22;17936;52.446;10.840;2022-09-09T10:57:10;22.10;99.90
31309;DHT22;17936;52.446;10.840;2022-09-09T10:59:44;21.70;99.90
31309;DHT22;17936;52.446;10.840;2022-09-09T11:02:24;22.60;99.90
31309;DHT22;17936;52.446;10.840;2022-09-09T11:04:58;23.10;99.90
31309;DHT22;17936;52.446;10.840;2022-09-09T11:07:32;23.00;99.90
31309;DHT22;17936;52.446;10.840;2022-09-09T11:10:04;23.70;99.90
31309;DHT22;17936;52.446;10.840;2022-09-09T11:12:34;23.60;99.90
31309;DHT22;17936;52.446;10.840;2022-09-09T11:15:28;23.90;99.90
31309;DHT22;17936;52.446;10.840;2022-09-09T11:17:59;23.40;99.90
31309;DHT22;17936;52.446;10.840;2022-09-09T11:20:27;23.30;99.90
31309;DHT22;17936;52.446;10.840;2022-09-09T11:23:11;22.70;99.90
31309;DHT22;17936;52.446;10.840;2022-09-09T11:25:50;22.10;99.90
31309;DHT22;17936;52.446;10.840;2022-09-09T11:28:21;22.70;99.90
31309;DHT22;17936;52.446;10.840;2022-09-09T11:39:48;21.50;99.90
31309;DHT22;17936;52.446;10.840;2022-09-09T11:42:19;21.30;99.90
31309;DHT22;17936;52.446;10.840;2022-09-09T11:44:45;21.20;99.90
31309;DHT22;17936;52.446;10.840;2022-09-09T11:47:24;21.20;99.90
31309;DHT22;17936;52.446;10.840;2022-09-09T11:49:52;21.10;99.90
31309;DHT22;17936;52.446;10.840;2022-09-09T11:52:39;21.20;99.90
31309;DHT22;17936;52.446;10.840;2022-09-09T11:55:10;21.10;99.90
31309;DHT22;17936;52.446;10.840;2022-09-09T11:57:38;21.20;99.90
31309;DHT22;17936;52.446;10.840;2022-09-09T12:00:05;21.20;99.90
31309;DHT22;17936;52.446;10.840;2022-09-09T12:02:31;21.20;99.90
31309;DHT22;17936;52.446;10.840;2022-09-09T12:05:11;21.10;99.90
31309;DHT22;17936;52.446;10.840;2022-09-09T12:07:54;21.00;99.90
31309;DHT22;17936;52.446;10.840;2022-09-09T12:10:23;21.00;99.90
31309;DHT22;17936;52.446;10.840;2022-09-09T12:12:51;21.10;99.90
31309;DHT22;17936;52.446;10.840;2022-09-09T12:15:26;21.20;99.90
31309;DHT22;17936;52.446;10.840;2022-09-09T12:17:56;21.20;99.90
31309;DHT22;17936;52.446;10.840;2022-09-09T12:20:36;21.20;99.90
31309;DHT22;17936;52.446;10.840;2022-09-09T12:31:28;20.80;99.90
31309;DHT22;17936;52.446;10.840;2022-09-09T12:34:36;20.40;99.90
31309;DHT22;17936;52.446;10.840;2022-09-09T12:37:00;19.90;99.90
31309;DHT22;17936;52.446;10.840;2022-09-09T12:39:35;19.70;99.90
31309;DHT22;17936;52.446;10.840;2022-09-09T12:42:03;19.50;99.90
31309;DHT22;17936;52.446;10.840;2022-09-09T12:44:29;19.40;99.90
31309;DHT22;17936;52.446;10.840;2022-09-09T12:46:58;19.30;99.90
31309;DHT22;17936;52.446;10.840;2022-09-09T12:49:34;19.30;99.90
31309;DHT22;17936;52.446;10.840;2022-09-09T12:52:06;19.20;99.90
31309;DHT22;17936;52.446;10.840;2022-09-09T12:54:35;19.60;99.90
31309;DHT22;17936;52.446;10.840;2022-09-09T12:57:02;19.90;99.90
31309;DHT22;17936;52.446;10.840;2022-09-09T12:59:36;20.10;99.90
31309;DHT22;17936;52.446;10.840;2022-09-09T13:02:11;20.30;99.90
31309;DHT22;17936;52.446;10.840;2022-09-09T13:04:36;20.30;99.90
31309;DHT22;17936;52.446;10.840;2022-09-09T13:07:08;20.40;99.90
31309;DHT22;17936;52.446;10.840;2022-09-09T13:09:35;20.50;99.90
31309;DHT22;17936;52.446;10.840;2022-09-09T13:12:01;20.70;99.90
31309;DHT22;17936;52.446;10.840;2022-09-09T13:14:35;20.80;99.90
31309;DHT22;17936;52.446;10.840;2022-09-09T13:17:04;21.20;99.90
31309;DHT22;17936;52.446;10.840;2022-09-09T13:19:38;21.20;99.90
31309;DHT22;17936;52.446;10.840;2022-09-09T13:22:19;21.40;99.90
31309;DHT22;17936;52.446;10.840;2022-09-09T13:24:45;21.60;99.90
31309;DHT22;17936;52.446;10.840;2022-09-09T13:27:32;21.90;99.90
31309;DHT22;17936;52.446;10.840;2022-09-09T13:29:59;21.50;99.90
31309;DHT22;17936;52.446;10.840;2022-09-09T13:32:26;21.30;99.90
31309;DHT22;17936;52.446;10.840;2022-09-09T13:34:54;21.20;99.90
31309;DHT22;17936;52.446;10.840;2022-09-09T13:37:29;20.90;99.90
31309;DHT22;17936;52.446;10.840;2022-09-09T13:39:56;20.80;99.90
31309;DHT22;17936;52.446;10.840;2022-09-09T13:42:29;20.60;99.90
31309;DHT22;17936;52.446;10.840;2022-09-09T13:44:58;20.50;99.90
31309;DHT22;17936;52.446;10.840;2022-09-09T13:47:35;20.70;99.90
31309;DHT22;17936;52.446;10.840;2022-09-09T13:50:22;21.00;99.90
31309;DHT22;17936;52.446;10.840;2022-09-09T13:52:49;20.70;99.90
31309;DHT22;17936;52.446;10.840;2022-09-09T13:55:17;20.70;99.90
31309;DHT22;17936;52.446;10.840;2022-09-09T13:57:55;21.00;99.90
31309;DHT22;17936;52.446;10.840;2022-09-09T14:00:22;20.70;99.90
31309;DHT22;17936;52.446;10.840;2022-09-09T14:02:48;20.80;99.90
31309;DHT22;17936;52.446;10.840;2022-09-09T14:05:14;20.70;99.90
31309;DHT22;17936;52.446;10.840;2022-09-09T14:07:42;20.30;99.90
31309;DHT22;17936;52.446;10.840;2022-09-09T14:10:08;20.20;99.90
31309;DHT22;17936;52.446;10.840;2022-09-09T14:12:34;20.40;99.90
31309;DHT22;17936;52.446;10.840;2022-09-09T14:15:03;20.40;99.90
31309;DHT22;17936;52.446;10.840;2022-09-09T14:17:29;20.40;99.90
31309;DHT22;17936;52.446;10.840;2022-09-09T14:19:55;20.40;99.90
31309;DHT22;17936;52.446;10.840;2022-09-09T14:22:22;20.30;99.90
31309;DHT22;17936;52.446;10.840;2022-09-09T14:24:48;20.30;99.90
31309;DHT22;17936;52.446;10.840;2022-09-09T14:27:14;20.40;99.90
31309;DHT22;17936;52.446;10.840;2022-09-09T14:29:39;20.10;99.90
31309;DHT22;17936;52.446;10.840;2022-09-09T14:32:05;20.20;99.90
31309;DHT22;17936;52.446;10.840;2022-09-09T14:34:30;20.20;99.90
31309;DHT22;17936;52.446;10.840;2022-09-09T14:36:58;20.40;99.90
31309;DHT22;17936;52.446;10.840;2022-09-09T14:39:23;20.40;99.90
31309;DHT22;17936;52.446;10.840;2022-09-09T14:41:49;20.60;99.90
31309;DHT22;17936;52.446;10.840;2022-09-09T14:44:14;20.80;99.90
31309;DHT22;17936;52.446;10.840;2022-09-09T14:46:41;20.90;99.90
31309;DHT22;17936;52.446;10.840;2022-09-09T14:49:09;20.70;99.90
31309;DHT22;17936;52.446;10.840;2022-09-09T14:51:38;20.80;99.90
31309;DHT22;17936;52.446;10.840;2022-09-09T14:54:04;21.00;99.90
31309;DHT22;17936;52.446;10.840;2022-09-09T14:56:32;21.10;99.90
31309;DHT22;17936;52.446;10.840;2022-09-09T14:59:00;21.40;99.90
31309;DHT22;17936;52.446;10.840;2022-09-09T15:01:26;21.40;99.90
31309;DHT22;17936;52.446;10.840;2022-09-09T15:03:53;21.60;99.90
31309;DHT22;17936;52.446;10.840;2022-09-09T15:06:20;21.60;99.90
31309;DHT22;17936;52.446;10.840;2022-09-09T15:08:46;21.70;99.90
31309;DHT22;17936;52.446;10.840;2022-09-09T15:11:13;21.80;99.90
31309;DHT22;17936;52.446;10.840;2022-09-09T15:13:40;21.50;99.90
31309;DHT22;17936;52.446;10.840;2022-09-09T15:16:06;21.50;99.90
31309;DHT22;17936;52.446;10.840;2022-09-09T15:18:32;21.10;99.90
31309;DHT22;17936;52.446;10.840;2022-09-09T15:20:59;21.10;99.90
31309;DHT22;17936;52.446;10.840;2022-09-09T15:23:25;21.10;99.90
31309;DHT22;17936;52.446;10.840;2022-09-09T15:25:52;21.20;99.90
31309;DHT22;17936;52.446;10.840;2022-09-09T15:28:19;21.20;99.90
31309;DHT22;17936;52.446;10.840;2022-09-09T15:30:48;21.00;99.90
31309;DHT22;17936;52.446;10.840;2022-09-09T15:33:13;20.80;99.90
31309;DHT22;17936;52.446;10.840;2022-09-09T15:35:39;20.50;99.90
31309;DHT22;17936;52.446;10.840;2022-09-09T15:38:04;20.20;99.90
31309;DHT22;17936;52.446;10.840;2022-09-09T15:40:30;20.20;99.90
31309;DHT22;17936;52.446;10.840;2022-09-09T15:42:58;20.20;99.90
31309;DHT22;17936;52.446;10.840;2022-09-09T15:45:23;20.00;99.90
31309;DHT22;17936;52.446;10.840;2022-09-09T15:47:48;19.90;99.90
31309;DHT22;17936;52.446;10.840;2022-09-09T15:50:14;19.80;99.90
31309;DHT22;17936;52.446;10.840;2022-09-09T15:52:40;19.90;99.90
31309;DHT22;17936;52.446;10.840;2022-09-09T15:55:05;19.90;99.90
31309;DHT22;17936;52.446;10.840;2022-09-09T15:57:33;19.90;99.90
31309;DHT22;17936;52.446;10.840;2022-09-09T16:00:00;20.00;99.90
31309;DHT22;17936;52.446;10.840;2022-09-09T16:02:26;20.00;99.90
31309;DHT22;17936;52.446;10.840;2022-09-09T16:04:51;20.00;99.90
31309;DHT22;17936;52.446;10.840;2022-09-09T16:07:17;19.90;99.90
31309;DHT22;17936;52.446;10.840;2022-09-09T16:09:43;20.00;99.90
31309;DHT22;17936;52.446;10.840;2022-09-09T16:12:09;20.30;99.90
31309;DHT22;17936;52.446;10.840;2022-09-09T16:14:40;20.30;99.90
31309;DHT22;17936;52.446;10.840;2022-09-09T16:17:06;20.30;99.90
31309;DHT22;17936;52.446;10.840;2022-09-09T16:19:32;20.00;99.90
31309;DHT22;17936;52.446;10.840;2022-09-09T16:22:00;20.00;99.90
31309;DHT22;17936;52.446;10.840;2022-09-09T16:24:25;19.90;99.90
31309;DHT22;17936;52.446;10.840;2022-09-09T16:26:53;19.70;99.90
31309;DHT22;17936;52.446;10.840;2022-09-09T16:29:20;19.60;99.90
31309;DHT22;17936;52.446;10.840;2022-09-09T16:31:47;19.80;99.90
31309;DHT22;17936;52.446;10.840;2022-09-09T16:34:13;19.80;99.90
31309;DHT22;17936;52.446;10.840;2022-09-09T16:36:41;19.60;99.90
31309;DHT22;17936;52.446;10.840;2022-09-09T16:39:09;19.50;99.90
31309;DHT22;17936;52.446;10.840;2022-09-09T16:41:35;19.50;99.90
31309;DHT22;17936;52.446;10.840;2022-09-09T16:44:03;19.50;99.90
31309;DHT22;17936;52.446;10.840;2022-09-09T16:46:31;19.70;99.90